createdAt,value
2018-03-27T00:00:25.835Z,7.29
2018-03-27T00:01:25.824Z,7.24
2018-03-27T00:02:25.871Z,7.24
2018-03-27T00:03:25.814Z,7.21
2018-03-27T00:04:25.802Z,7.11
2018-03-27T00:05:25.795Z,7.14
2018-03-27T00:06:25.795Z,7.09
2018-03-27T00:07:25.782Z,7.08
2018-03-27T00:08:25.772Z,6.94
2018-03-27T00:09:25.765Z,6.93
2018-03-27T00:10:25.758Z,6.83
2018-03-27T00:11:25.754Z,6.71
2018-03-27T00:12:25.746Z,6.72
2018-03-27T00:13:25.738Z,6.79
2018-03-27T00:14:25.732Z,6.63
2018-03-27T00:15:25.723Z,6.64
2018-03-27T00:16:25.715Z,6.72
2018-03-27T00:17:25.705Z,6.61
2018-03-27T00:18:25.698Z,6.61
2018-03-27T00:19:25.691Z,6.54
2018-03-27T00:20:25.683Z,6.48
2018-03-27T00:21:25.679Z,6.38
2018-03-27T00:22:25.668Z,6.40
2018-03-27T00:23:25.660Z,6.36
2018-03-27T00:24:25.650Z,6.28
2018-03-27T00:25:25.652Z,6.28
2018-03-27T00:26:25.640Z,6.28
2018-03-27T00:27:25.628Z,6.24
2018-03-27T00:28:25.619Z,6.28
2018-03-27T00:29:25.613Z,6.42
2018-03-27T00:30:25.605Z,6.35
2018-03-27T00:31:25.598Z,6.24
2018-03-27T00:32:25.589Z,6.28
2018-03-27T00:33:25.586Z,6.33
2018-03-27T00:34:25.620Z,6.21
2018-03-27T00:35:25.566Z,6.30
2018-03-27T00:36:25.556Z,6.19
2018-03-27T00:37:25.552Z,6.20
2018-03-27T00:38:25.546Z,6.20
2018-03-27T00:39:25.546Z,6.11
2018-03-27T00:40:25.523Z,6.13
2018-03-27T00:41:25.524Z,6.10
2018-03-27T00:42:25.509Z,6.10
2018-03-27T00:43:25.501Z,6.13
2018-03-27T00:44:25.492Z,6.11
2018-03-27T00:45:25.485Z,6.10
2018-03-27T00:46:25.477Z,6.10
2018-03-27T00:47:25.469Z,6.14
2018-03-27T00:48:25.460Z,6.10
2018-03-27T00:49:25.452Z,6.20
2018-03-27T00:50:25.443Z,6.16
2018-03-27T00:51:25.440Z,6.10
2018-03-27T00:52:25.430Z,6.13
2018-03-27T00:53:25.419Z,5.95
2018-03-27T00:54:25.411Z,5.90
2018-03-27T00:55:25.408Z,5.93
2018-03-27T00:56:25.398Z,5.78
2018-03-27T00:57:25.386Z,5.80
2018-03-27T00:58:25.381Z,5.85
2018-03-27T00:59:25.371Z,5.78
2018-03-27T01:00:25.361Z,5.81
2018-03-27T01:01:25.354Z,5.69
2018-03-27T01:02:25.349Z,5.74
2018-03-27T01:03:25.338Z,5.67
2018-03-27T01:04:25.334Z,5.75
2018-03-27T01:05:25.324Z,5.73
2018-03-27T01:06:25.316Z,5.63
2018-03-27T01:07:25.306Z,5.65
2018-03-27T01:08:25.296Z,5.63
2018-03-27T01:09:25.291Z,5.60
2018-03-27T01:10:25.283Z,5.63
2018-03-27T01:11:25.271Z,5.67
2018-03-27T01:12:25.262Z,5.63
2018-03-27T01:13:25.259Z,5.62
2018-03-27T01:14:25.246Z,5.62
2018-03-27T01:15:25.239Z,5.65
2018-03-27T01:16:25.230Z,5.60
2018-03-27T01:17:25.222Z,5.59
2018-03-27T01:18:25.214Z,5.60
2018-03-27T01:19:25.206Z,5.47
2018-03-27T01:20:25.196Z,5.47
2018-03-27T01:21:25.187Z,5.49
2018-03-27T01:22:25.178Z,5.47
2018-03-27T01:23:25.175Z,5.44
2018-03-27T01:24:25.167Z,5.48
2018-03-27T01:25:25.155Z,5.38
2018-03-27T01:26:25.146Z,5.37
2018-03-27T01:27:25.141Z,5.33
2018-03-27T01:28:25.132Z,5.38
2018-03-27T01:29:25.121Z,5.26
2018-03-27T01:30:25.112Z,5.24
2018-03-27T01:31:25.103Z,5.17
2018-03-27T01:32:25.098Z,5.19
2018-03-27T01:33:25.086Z,5.12
2018-03-27T01:34:25.078Z,5.08
2018-03-27T01:35:25.073Z,5.17
2018-03-27T01:36:25.063Z,5.11
2018-03-27T01:37:25.056Z,5.14
2018-03-27T01:38:25.044Z,5.20
2018-03-27T01:39:25.035Z,5.08
2018-03-27T01:40:25.026Z,5.08
2018-03-27T01:41:25.016Z,5.04
2018-03-27T01:42:25.007Z,4.90
2018-03-27T01:43:25.002Z,4.99
2018-03-27T01:44:24.992Z,4.91
2018-03-27T01:45:24.981Z,4.90
2018-03-27T01:46:24.975Z,4.84
2018-03-27T01:47:24.968Z,4.80
2018-03-27T01:48:24.960Z,4.72
2018-03-27T01:49:24.950Z,4.69
2018-03-27T01:50:24.941Z,4.83
2018-03-27T01:51:24.929Z,4.79
2018-03-27T01:52:24.920Z,4.80
2018-03-27T01:53:24.912Z,4.83
2018-03-27T01:54:24.902Z,4.83
2018-03-27T01:55:24.893Z,4.87
2018-03-27T01:56:24.885Z,4.80
2018-03-27T01:57:24.882Z,4.75
2018-03-27T01:58:24.867Z,4.93
2018-03-27T01:59:24.858Z,4.77
2018-03-27T02:00:24.850Z,4.79
2018-03-27T02:01:24.843Z,4.72
2018-03-27T02:02:24.836Z,4.74
2018-03-27T02:03:24.823Z,4.72
2018-03-27T02:04:24.813Z,4.77
2018-03-27T02:05:24.803Z,4.74
2018-03-27T02:06:24.795Z,4.75
2018-03-27T02:07:24.790Z,4.69
2018-03-27T02:08:24.781Z,4.72
2018-03-27T02:09:24.770Z,4.68
2018-03-27T02:10:24.760Z,4.69
2018-03-27T02:11:24.751Z,4.57
2018-03-27T02:12:24.742Z,4.64
2018-03-27T02:13:24.733Z,4.62
2018-03-27T02:14:24.724Z,4.59
2018-03-27T02:15:24.715Z,4.47
2018-03-27T02:16:24.705Z,4.57
2018-03-27T02:17:24.698Z,4.61
2018-03-27T02:18:24.688Z,4.56
2018-03-27T02:19:24.682Z,4.57
2018-03-27T02:20:24.673Z,4.61
2018-03-27T02:21:24.668Z,4.67
2018-03-27T02:22:24.654Z,4.68
2018-03-27T02:23:24.643Z,4.65
2018-03-27T02:24:24.632Z,4.75
2018-03-27T02:25:24.624Z,4.80
2018-03-27T02:26:24.616Z,4.69
2018-03-27T02:27:24.607Z,4.68
2018-03-27T02:28:24.597Z,4.74
2018-03-27T02:29:24.588Z,4.64
2018-03-27T02:30:24.580Z,4.61
2018-03-27T02:31:24.570Z,4.57
2018-03-27T02:32:24.561Z,4.62
2018-03-27T02:33:24.555Z,4.51
2018-03-27T02:34:24.548Z,4.67
2018-03-27T02:35:24.535Z,4.57
2018-03-27T02:36:24.525Z,4.47
2018-03-27T02:37:24.520Z,4.62
2018-03-27T02:38:24.511Z,4.57
2018-03-27T02:39:24.499Z,4.62
2018-03-27T02:40:24.488Z,4.75
2018-03-27T02:41:24.479Z,4.72
2018-03-27T02:42:24.470Z,4.57
2018-03-27T02:43:24.461Z,4.59
2018-03-27T02:44:24.453Z,4.54
2018-03-27T02:45:24.443Z,4.50
2018-03-27T02:46:24.434Z,4.49
2018-03-27T02:47:24.424Z,4.51
2018-03-27T02:48:24.416Z,4.50
2018-03-27T02:49:24.409Z,4.47
2018-03-27T02:50:24.401Z,4.51
2018-03-27T02:51:24.387Z,4.50
2018-03-27T02:52:24.378Z,4.51
2018-03-27T02:53:24.369Z,4.49
2018-03-27T02:54:24.368Z,4.46
2018-03-27T02:55:24.357Z,4.53
2018-03-27T02:56:24.349Z,4.43
2018-03-27T02:57:24.342Z,4.50
2018-03-27T02:58:24.322Z,4.39
2018-03-27T02:59:24.313Z,4.26
2018-03-27T03:00:24.305Z,4.44
2018-03-27T03:01:24.302Z,4.46
2018-03-27T03:02:24.288Z,4.47
2018-03-27T03:03:24.277Z,4.39
2018-03-27T03:04:24.267Z,4.43
2018-03-27T03:05:24.260Z,4.28
2018-03-27T03:06:24.255Z,4.29
2018-03-27T03:07:24.246Z,4.35
2018-03-27T03:08:24.233Z,4.35
2018-03-27T03:09:24.227Z,4.28
2018-03-27T03:10:24.216Z,4.35
2018-03-27T03:11:24.204Z,4.35
2018-03-27T03:12:24.192Z,4.35
2018-03-27T03:13:24.185Z,4.42
2018-03-27T03:14:24.174Z,4.28
2018-03-27T03:15:24.166Z,4.35
2018-03-27T03:16:24.155Z,4.21
2018-03-27T03:17:24.146Z,4.29
2018-03-27T03:18:24.137Z,4.14
2018-03-27T03:19:24.128Z,4.18
2018-03-27T03:20:24.118Z,4.34
2018-03-27T03:21:24.113Z,4.26
2018-03-27T03:22:24.109Z,4.32
2018-03-27T03:23:24.092Z,4.31
2018-03-27T03:24:24.080Z,4.44
2018-03-27T03:25:24.073Z,4.39
2018-03-27T03:26:24.062Z,4.49
2018-03-27T03:27:24.058Z,4.38
2018-03-27T03:28:24.048Z,4.44
2018-03-27T03:29:24.035Z,4.49
2018-03-27T03:30:24.031Z,4.38
2018-03-27T03:31:24.020Z,4.43
2018-03-27T03:32:24.006Z,4.44
2018-03-27T03:33:23.998Z,4.49
2018-03-27T03:34:23.987Z,4.47
2018-03-27T03:35:23.980Z,4.61
2018-03-27T03:36:23.967Z,4.46
2018-03-27T03:37:23.958Z,4.49
2018-03-27T03:38:23.949Z,4.51
2018-03-27T03:39:23.944Z,4.53
2018-03-27T03:40:23.934Z,4.39
2018-03-27T03:41:23.921Z,4.29
2018-03-27T03:42:23.914Z,4.25
2018-03-27T03:43:23.902Z,4.28
2018-03-27T03:44:23.893Z,4.32
2018-03-27T03:45:23.882Z,4.07
2018-03-27T03:46:23.873Z,4.04
2018-03-27T03:47:23.869Z,3.99
2018-03-27T03:48:23.858Z,3.93
2018-03-27T03:49:23.844Z,3.93
2018-03-27T03:50:23.835Z,3.77
2018-03-27T03:51:23.831Z,3.82
2018-03-27T03:52:23.819Z,3.74
2018-03-27T03:53:23.807Z,3.64
2018-03-27T03:54:23.797Z,3.77
2018-03-27T03:55:23.789Z,3.63
2018-03-27T03:56:23.777Z,3.64
2018-03-27T03:57:23.769Z,3.63
2018-03-27T03:58:23.759Z,3.72
2018-03-27T03:59:23.749Z,3.75
2018-03-27T04:00:23.751Z,3.68
2018-03-27T04:01:23.733Z,3.64
2018-03-27T04:02:23.723Z,3.57
2018-03-27T04:03:23.709Z,3.56
2018-03-27T04:04:23.701Z,3.39
2018-03-27T04:05:23.694Z,3.56
2018-03-27T04:06:23.684Z,3.46
2018-03-27T04:07:23.671Z,3.56
2018-03-27T04:08:23.660Z,3.45
2018-03-27T04:09:23.660Z,3.31
2018-03-27T04:10:23.641Z,3.41
2018-03-27T04:11:23.663Z,3.30
2018-03-27T04:12:23.622Z,3.34
2018-03-27T04:13:23.612Z,3.28
2018-03-27T04:14:23.603Z,3.25
2018-03-27T04:15:23.593Z,3.35
2018-03-27T04:16:23.582Z,3.31
2018-03-27T04:17:23.572Z,3.42
2018-03-27T04:18:23.562Z,3.44
2018-03-27T04:19:23.557Z,3.45
2018-03-27T04:20:23.545Z,3.60
2018-03-27T04:21:23.532Z,3.82
2018-03-27T04:22:23.522Z,3.75
2018-03-27T04:23:23.517Z,3.80
2018-03-27T04:24:23.505Z,3.89
2018-03-27T04:25:23.492Z,3.98
2018-03-27T04:26:23.485Z,3.99
2018-03-27T04:27:23.473Z,3.98
2018-03-27T04:28:23.463Z,3.92
2018-03-27T04:29:23.453Z,4.08
2018-03-27T04:30:23.441Z,4.07
2018-03-27T04:31:23.435Z,4.06
2018-03-27T04:32:23.421Z,4.11
2018-03-27T04:33:23.415Z,4.04
2018-03-27T04:34:23.406Z,4.00
2018-03-27T04:35:23.392Z,4.08
2018-03-27T04:36:23.381Z,4.04
2018-03-27T04:37:23.374Z,4.04
2018-03-27T04:38:23.364Z,4.06
2018-03-27T04:39:23.351Z,4.07
2018-03-27T04:40:23.339Z,4.07
2018-03-27T04:41:23.330Z,4.07
2018-03-27T04:42:23.319Z,4.13
2018-03-27T04:43:23.309Z,4.18
2018-03-27T04:44:23.299Z,4.25
2018-03-27T04:45:23.293Z,4.24
2018-03-27T04:46:23.283Z,4.14
2018-03-27T04:47:23.269Z,4.18
2018-03-27T04:48:23.257Z,4.20
2018-03-27T04:49:23.248Z,4.24
2018-03-27T04:50:23.238Z,4.21
2018-03-27T04:51:23.227Z,4.17
2018-03-27T04:52:23.219Z,4.16
2018-03-27T04:53:23.207Z,4.29
2018-03-27T04:54:23.197Z,4.26
2018-03-27T04:55:23.187Z,4.39
2018-03-27T04:56:23.175Z,4.25
2018-03-27T04:57:23.169Z,4.26
2018-03-27T04:58:23.164Z,4.44
2018-03-27T04:59:23.147Z,4.42
2018-03-27T05:00:23.139Z,4.39
2018-03-27T05:01:23.124Z,4.35
2018-03-27T05:02:23.129Z,4.38
2018-03-27T05:03:23.111Z,4.44
2018-03-27T05:04:23.096Z,4.34
2018-03-27T05:05:23.084Z,4.34
2018-03-27T05:06:23.072Z,4.42
2018-03-27T05:07:23.063Z,4.44
2018-03-27T05:08:23.052Z,4.44
2018-03-27T05:09:23.041Z,4.42
2018-03-27T05:10:23.031Z,4.26
2018-03-27T05:11:23.022Z,4.34
2018-03-27T05:12:23.009Z,4.32
2018-03-27T05:13:22.998Z,4.26
2018-03-27T05:14:22.989Z,4.31
2018-03-27T05:15:22.986Z,4.31
2018-03-27T05:16:22.974Z,4.13
2018-03-27T05:17:22.961Z,4.18
2018-03-27T05:18:22.951Z,4.24
2018-03-27T05:19:22.937Z,4.29
2018-03-27T05:20:22.926Z,4.13
2018-03-27T05:21:22.915Z,4.17
2018-03-27T05:22:22.907Z,4.13
2018-03-27T05:23:22.918Z,4.18
2018-03-27T05:24:22.885Z,4.14
2018-03-27T05:25:22.874Z,4.16
2018-03-27T05:26:22.865Z,4.14
2018-03-27T05:27:22.854Z,4.29
2018-03-27T05:28:22.843Z,4.13
2018-03-27T05:29:22.836Z,4.29
2018-03-27T05:30:22.831Z,4.29
2018-03-27T05:31:22.812Z,4.28
2018-03-27T05:32:22.802Z,4.29
2018-03-27T05:33:22.792Z,4.18
2018-03-27T05:34:22.781Z,4.17
2018-03-27T05:35:22.775Z,4.26
2018-03-27T05:36:22.765Z,4.34
2018-03-27T05:37:22.749Z,4.29
2018-03-27T05:38:22.742Z,4.34
2018-03-27T05:39:22.731Z,4.38
2018-03-27T05:40:22.719Z,4.36
2018-03-27T05:41:22.710Z,4.44
2018-03-27T05:42:22.700Z,4.36
2018-03-27T05:43:22.689Z,4.50
2018-03-27T05:44:22.679Z,4.57
2018-03-27T05:45:22.671Z,4.74
2018-03-27T05:46:22.659Z,5.09
2018-03-27T05:47:22.667Z,5.19
2018-03-27T05:48:22.642Z,5.35
2018-03-27T05:49:22.628Z,5.45
2018-03-27T05:50:22.620Z,5.58
2018-03-27T05:51:22.610Z,5.70
2018-03-27T05:52:22.597Z,5.62
2018-03-27T05:53:22.588Z,5.48
2018-03-27T05:54:22.578Z,5.47
2018-03-27T05:55:22.572Z,5.37
2018-03-27T05:56:22.562Z,5.35
2018-03-27T05:57:22.549Z,5.30
2018-03-27T05:58:22.541Z,5.35
2018-03-27T05:59:22.534Z,5.59
2018-03-27T06:00:22.524Z,5.87
2018-03-27T06:01:22.511Z,6.33
2018-03-27T06:02:22.503Z,6.42
2018-03-27T06:03:22.492Z,6.60
2018-03-27T06:04:22.484Z,6.48
2018-03-27T06:05:22.475Z,6.63
2018-03-27T06:06:22.464Z,6.94
2018-03-27T06:07:22.456Z,7.27
2018-03-27T06:08:22.448Z,7.52
2018-03-27T06:09:22.441Z,7.70
2018-03-27T06:10:22.433Z,7.69
2018-03-27T06:11:22.420Z,7.89
2018-03-27T06:12:22.412Z,8.12
2018-03-27T06:13:22.407Z,8.39
2018-03-27T06:14:22.400Z,8.40
2018-03-27T06:15:22.389Z,8.64
2018-03-27T06:16:22.379Z,8.93
2018-03-27T06:17:22.378Z,9.16
2018-03-27T06:18:22.365Z,9.56
2018-03-27T06:19:22.360Z,9.60
2018-03-27T06:20:22.350Z,9.85
2018-03-27T06:21:22.344Z,10.36
2018-03-27T06:22:22.338Z,10.90
2018-03-27T06:23:22.331Z,11.24
2018-03-27T06:24:22.324Z,11.57
2018-03-27T06:25:22.318Z,11.74
2018-03-27T06:26:22.312Z,11.78
2018-03-27T06:27:22.317Z,11.75
2018-03-27T06:28:22.304Z,11.06
2018-03-27T06:29:22.296Z,11.30
2018-03-27T06:30:22.290Z,11.05
2018-03-27T06:31:22.289Z,11.57
2018-03-27T06:32:22.284Z,11.66
2018-03-27T06:33:22.277Z,12.13
2018-03-27T06:34:22.273Z,12.59
2018-03-27T06:35:22.268Z,12.99
2018-03-27T06:36:22.264Z,13.25
2018-03-27T06:37:22.261Z,13.43
2018-03-27T06:38:22.256Z,13.90
2018-03-27T06:39:22.254Z,13.83
2018-03-27T06:40:22.250Z,13.87
2018-03-27T06:41:22.249Z,13.81
2018-03-27T06:42:22.246Z,14.09
2018-03-27T06:43:22.240Z,14.16
2018-03-27T06:44:22.238Z,14.06
2018-03-27T06:45:22.238Z,14.27
2018-03-27T06:46:22.237Z,14.45
2018-03-27T06:47:22.232Z,14.93
2018-03-27T06:48:22.229Z,14.90
2018-03-27T06:49:22.229Z,15.28
2018-03-27T06:50:22.227Z,14.91
2018-03-27T06:51:22.226Z,15.18
2018-03-27T06:52:22.223Z,15.19
2018-03-27T06:53:22.224Z,15.31
2018-03-27T06:54:22.224Z,15.13
2018-03-27T06:55:22.224Z,15.56
2018-03-27T06:56:22.223Z,15.15
2018-03-27T06:57:22.222Z,15.41
2018-03-27T06:58:22.223Z,15.44
2018-03-27T06:59:22.226Z,15.07
2018-03-27T07:00:22.226Z,14.52
2018-03-27T07:01:22.228Z,13.43
2018-03-27T07:02:22.250Z,13.06
2018-03-27T07:03:22.231Z,12.74
2018-03-27T07:04:22.231Z,12.66
2018-03-27T07:05:22.254Z,12.67
2018-03-27T07:06:22.255Z,12.73
2018-03-27T07:07:22.229Z,12.59
2018-03-27T07:08:22.238Z,12.92
2018-03-27T07:09:22.231Z,12.43
2018-03-27T07:10:22.232Z,12.74
2018-03-27T07:11:22.258Z,12.76
2018-03-27T07:12:22.235Z,12.31
2018-03-27T07:13:22.283Z,11.74
2018-03-27T07:14:22.279Z,12.04
2018-03-27T07:15:22.250Z,12.36
2018-03-27T07:16:22.253Z,12.22
2018-03-27T07:17:22.263Z,12.44
2018-03-27T07:18:22.250Z,12.31
2018-03-27T07:19:22.251Z,12.15
2018-03-27T07:20:22.264Z,12.49
2018-03-27T07:21:22.253Z,12.54
2018-03-27T07:22:22.256Z,13.16
2018-03-27T07:23:22.262Z,13.61
2018-03-27T07:24:22.261Z,13.50
2018-03-27T07:25:22.262Z,13.32
2018-03-27T07:26:22.265Z,13.10
2018-03-27T07:27:22.269Z,13.27
2018-03-27T07:28:22.271Z,13.98
2018-03-27T07:29:22.272Z,13.29
2018-03-27T07:30:22.275Z,13.50
2018-03-27T07:31:22.287Z,14.79
2018-03-27T07:32:22.283Z,14.23
2018-03-27T07:33:22.283Z,15.49
2018-03-27T07:34:22.286Z,16.16
2018-03-27T07:35:22.294Z,16.96
2018-03-27T07:36:22.295Z,17.17
2018-03-27T07:37:22.296Z,17.60
2018-03-27T07:38:22.303Z,17.54
2018-03-27T07:39:22.301Z,17.76
2018-03-27T07:40:22.304Z,17.60
2018-03-27T07:41:22.308Z,16.75
2018-03-27T07:42:22.314Z,17.38
2018-03-27T07:43:22.317Z,17.80
2018-03-27T07:44:22.321Z,18.31
2018-03-27T07:45:22.329Z,16.03
2018-03-27T07:46:22.333Z,16.95
2018-03-27T07:47:22.335Z,17.22
2018-03-27T07:48:22.339Z,17.09
2018-03-27T07:49:22.346Z,16.73
2018-03-27T07:50:22.352Z,17.14
2018-03-27T07:51:22.352Z,16.59
2018-03-27T07:52:22.357Z,16.36
2018-03-27T07:53:22.362Z,16.03
2018-03-27T07:54:22.368Z,16.92
2018-03-27T07:55:22.373Z,17.24
2018-03-27T07:56:22.377Z,16.96
2018-03-27T07:57:22.386Z,17.74
2018-03-27T07:58:22.392Z,18.60
2018-03-27T07:59:22.395Z,17.00
2018-03-27T08:00:22.401Z,17.45
2018-03-27T08:01:22.405Z,16.62
2018-03-27T08:02:22.414Z,16.34
2018-03-27T08:03:22.415Z,15.34
2018-03-27T08:04:22.421Z,14.38
2018-03-27T08:05:22.428Z,14.08
2018-03-27T08:06:22.432Z,14.27
2018-03-27T08:07:22.438Z,14.87
2018-03-27T08:08:22.444Z,13.86
2018-03-27T08:09:22.452Z,13.99
2018-03-27T08:10:22.459Z,13.72
2018-03-27T08:11:22.460Z,13.69
2018-03-27T08:12:22.466Z,13.61
2018-03-27T08:13:22.472Z,13.88
2018-03-27T08:14:22.478Z,14.19
2018-03-27T08:15:22.493Z,13.46
2018-03-27T08:16:22.492Z,14.54
2018-03-27T08:17:22.494Z,14.56
2018-03-27T08:18:22.500Z,14.09
2018-03-27T08:19:22.504Z,14.39
2018-03-27T08:20:22.510Z,15.33
2018-03-27T08:21:22.515Z,15.48
2018-03-27T08:22:22.526Z,15.52
2018-03-27T08:23:22.526Z,15.46
2018-03-27T08:24:22.641Z,14.91
2018-03-27T08:25:22.537Z,14.72
2018-03-27T08:26:22.542Z,14.78
2018-03-27T08:27:22.554Z,14.59
2018-03-27T08:28:22.557Z,16.17
2018-03-27T08:29:22.606Z,15.66
2018-03-27T08:30:22.580Z,16.01
2018-03-27T08:31:22.571Z,15.33
2018-03-27T08:32:22.584Z,14.63
2018-03-27T08:33:22.582Z,14.35
2018-03-27T08:34:22.591Z,14.30
2018-03-27T08:35:22.592Z,14.42
2018-03-27T08:36:22.642Z,13.93
2018-03-27T08:37:22.607Z,13.31
2018-03-27T08:38:22.607Z,13.19
2018-03-27T08:39:22.613Z,12.49
2018-03-27T08:40:22.617Z,12.01
2018-03-27T08:41:22.625Z,11.94
2018-03-27T08:42:22.629Z,12.11
2018-03-27T08:43:22.635Z,13.01
2018-03-27T08:44:22.633Z,13.63
2018-03-27T08:45:22.636Z,13.99
2018-03-27T08:46:22.643Z,14.44
2018-03-27T08:47:22.648Z,15.34
2018-03-27T08:48:22.656Z,15.19
2018-03-27T08:49:22.652Z,15.33
2018-03-27T08:50:22.655Z,15.76
2018-03-27T08:51:22.658Z,16.03
2018-03-27T08:52:22.661Z,15.38
2018-03-27T08:53:22.664Z,14.46
2018-03-27T08:54:22.671Z,14.27
2018-03-27T08:55:22.670Z,14.93
2018-03-27T08:56:22.672Z,16.27
2018-03-27T08:57:22.679Z,17.65
2018-03-27T08:58:22.680Z,18.26
2018-03-27T08:59:22.688Z,17.10
2018-03-27T09:00:22.691Z,17.80
2018-03-27T09:01:22.693Z,17.55
2018-03-27T09:02:22.697Z,16.08
2018-03-27T09:03:22.703Z,15.64
2018-03-27T09:04:22.705Z,15.28
2018-03-27T09:05:22.752Z,15.81
2018-03-27T09:06:22.725Z,17.17
2018-03-27T09:07:22.723Z,17.54
2018-03-27T09:08:22.727Z,16.91
2018-03-27T09:09:22.728Z,15.80
2018-03-27T09:10:22.734Z,15.60
2018-03-27T09:11:22.744Z,14.98
2018-03-27T09:12:22.746Z,14.20
2018-03-27T09:13:22.747Z,13.50
2018-03-27T09:14:22.752Z,13.38
2018-03-27T09:15:22.757Z,13.22
2018-03-27T09:16:22.766Z,13.27
2018-03-27T09:17:22.767Z,13.28
2018-03-27T09:18:22.769Z,12.69
2018-03-27T09:19:22.774Z,12.59
2018-03-27T09:20:22.776Z,12.55
2018-03-27T09:21:22.784Z,12.16
2018-03-27T09:22:22.787Z,12.07
2018-03-27T09:23:22.809Z,11.84
2018-03-27T09:24:22.788Z,11.94
2018-03-27T09:25:22.794Z,11.75
2018-03-27T09:26:22.799Z,11.31
2018-03-27T09:27:22.795Z,11.12
2018-03-27T09:28:22.796Z,11.27
2018-03-27T09:29:22.797Z,11.46
2018-03-27T09:30:22.800Z,11.27
2018-03-27T09:31:22.800Z,11.35
2018-03-27T09:32:22.802Z,11.30
2018-03-27T09:33:22.803Z,11.30
2018-03-27T09:34:22.802Z,11.30
2018-03-27T09:35:22.808Z,11.48
2018-03-27T09:36:22.803Z,11.56
2018-03-27T09:37:22.802Z,11.59
2018-03-27T09:38:22.802Z,11.54
2018-03-27T09:39:22.808Z,11.45
2018-03-27T09:40:22.806Z,11.77
2018-03-27T09:41:22.802Z,11.77
2018-03-27T09:42:22.802Z,11.93
2018-03-27T09:43:22.805Z,11.98
2018-03-27T09:44:22.806Z,11.85
2018-03-27T09:45:22.799Z,11.70
2018-03-27T09:46:22.798Z,11.46
2018-03-27T09:47:22.797Z,11.44
2018-03-27T09:48:22.796Z,11.28
2018-03-27T09:49:22.797Z,11.08
2018-03-27T09:50:22.839Z,10.98
2018-03-27T09:51:22.792Z,10.78
2018-03-27T09:52:22.790Z,10.95
2018-03-27T09:53:22.792Z,11.02
2018-03-27T09:54:22.791Z,11.09
2018-03-27T09:55:22.785Z,11.16
2018-03-27T09:56:22.785Z,11.21
2018-03-27T09:57:22.788Z,11.23
2018-03-27T09:58:22.783Z,11.02
2018-03-27T09:59:22.777Z,11.08
2018-03-27T10:00:22.773Z,11.06
2018-03-27T10:01:22.773Z,11.06
2018-03-27T10:02:22.774Z,10.98
2018-03-27T10:03:22.767Z,10.88
2018-03-27T10:04:22.765Z,11.09
2018-03-27T10:05:22.767Z,10.99
2018-03-27T10:06:22.763Z,11.16
2018-03-27T10:07:22.761Z,11.30
2018-03-27T10:08:22.754Z,11.26
2018-03-27T10:09:22.752Z,11.38
2018-03-27T10:10:22.749Z,11.48
2018-03-27T10:11:22.747Z,11.41
2018-03-27T10:12:22.744Z,11.46
2018-03-27T10:13:22.740Z,11.46
2018-03-27T10:14:22.742Z,11.48
2018-03-27T10:15:22.742Z,11.41
2018-03-27T10:16:22.732Z,11.42
2018-03-27T10:17:22.734Z,11.44
2018-03-27T10:18:22.730Z,11.39
2018-03-27T10:19:22.723Z,11.49
2018-03-27T10:20:22.720Z,11.48
2018-03-27T10:21:22.719Z,11.39
2018-03-27T10:22:22.719Z,11.59
2018-03-27T10:23:22.717Z,11.60
2018-03-27T10:24:22.713Z,11.44
2018-03-27T10:25:22.707Z,11.46
2018-03-27T10:26:22.705Z,11.53
2018-03-27T10:27:22.715Z,11.78
2018-03-27T10:28:22.699Z,11.70
2018-03-27T10:29:22.696Z,11.93
2018-03-27T10:30:22.694Z,11.88
2018-03-27T10:31:22.689Z,11.74
2018-03-27T10:32:22.686Z,11.90
2018-03-27T10:33:22.683Z,11.94
2018-03-27T10:34:22.679Z,12.15
2018-03-27T10:35:22.681Z,12.34
2018-03-27T10:36:22.677Z,12.49
2018-03-27T10:37:22.675Z,12.66
2018-03-27T10:38:22.672Z,12.54
2018-03-27T10:39:22.665Z,12.91
2018-03-27T10:40:22.662Z,12.94
2018-03-27T10:41:22.660Z,13.19
2018-03-27T10:42:22.657Z,14.08
2018-03-27T10:43:22.656Z,14.91
2018-03-27T10:44:22.653Z,15.43
2018-03-27T10:45:22.688Z,15.85
2018-03-27T10:46:22.650Z,15.58
2018-03-27T10:47:22.649Z,15.23
2018-03-27T10:48:22.645Z,15.23
2018-03-27T10:49:22.650Z,15.74
2018-03-27T10:50:22.649Z,15.37
2018-03-27T10:51:22.646Z,15.07
2018-03-27T10:52:22.644Z,15.53
2018-03-27T10:53:22.645Z,16.13
2018-03-27T10:54:22.647Z,15.62
2018-03-27T10:55:22.651Z,15.99
2018-03-27T10:56:22.651Z,15.92
2018-03-27T10:57:22.649Z,15.55
2018-03-27T10:58:22.650Z,15.38
2018-03-27T10:59:22.652Z,14.67
2018-03-27T11:00:22.653Z,14.97
2018-03-27T11:01:22.655Z,15.33
2018-03-27T11:02:22.658Z,15.07
2018-03-27T11:03:22.660Z,15.16
2018-03-27T11:04:22.660Z,15.40
2018-03-27T11:05:22.663Z,15.31
2018-03-27T11:06:22.665Z,15.00
2018-03-27T11:07:22.672Z,15.33
2018-03-27T11:08:22.675Z,15.04
2018-03-27T11:09:22.674Z,15.19
2018-03-27T11:10:22.678Z,15.34
2018-03-27T11:11:22.683Z,14.91
2018-03-27T11:12:22.686Z,15.15
2018-03-27T11:13:22.688Z,15.59
2018-03-27T11:14:22.692Z,15.31
2018-03-27T11:15:22.692Z,15.73
2018-03-27T11:16:22.693Z,16.11
2018-03-27T11:17:22.708Z,15.71
2018-03-27T11:18:22.705Z,16.32
2018-03-27T11:19:22.705Z,16.48
2018-03-27T11:20:22.708Z,15.98
2018-03-27T11:21:22.712Z,15.73
2018-03-27T11:22:22.715Z,15.88
2018-03-27T11:23:22.755Z,16.06
2018-03-27T11:24:22.721Z,15.33
2018-03-27T11:25:22.725Z,15.59
2018-03-27T11:26:22.729Z,15.33
2018-03-27T11:27:22.731Z,14.30
2018-03-27T11:28:22.734Z,13.93
2018-03-27T11:29:22.786Z,13.51
2018-03-27T11:30:22.739Z,13.27
2018-03-27T11:31:22.745Z,13.04
2018-03-27T11:32:22.747Z,12.63
2018-03-27T11:33:22.745Z,12.76
2018-03-27T11:34:22.747Z,12.62
2018-03-27T11:35:22.753Z,12.66
2018-03-27T11:36:22.753Z,12.54
2018-03-27T11:37:22.752Z,12.62
2018-03-27T11:38:22.753Z,12.69
2018-03-27T11:39:22.754Z,12.67
2018-03-27T11:40:22.753Z,12.59
2018-03-27T11:41:22.755Z,12.54
2018-03-27T11:42:22.760Z,12.52
2018-03-27T11:43:22.754Z,12.43
2018-03-27T11:44:22.813Z,12.43
2018-03-27T11:45:22.758Z,12.19
2018-03-27T11:46:22.757Z,12.18
2018-03-27T11:47:22.753Z,12.26
2018-03-27T11:48:22.763Z,12.07
2018-03-27T11:49:22.755Z,12.11
2018-03-27T11:50:22.754Z,12.11
2018-03-27T11:51:22.749Z,12.25
2018-03-27T11:52:22.748Z,12.25
2018-03-27T11:53:22.755Z,12.37
2018-03-27T11:54:22.744Z,12.58
2018-03-27T11:55:22.744Z,12.85
2018-03-27T11:56:22.746Z,13.24
2018-03-27T11:57:22.742Z,13.31
2018-03-27T11:58:22.740Z,13.46
2018-03-27T11:59:22.738Z,13.88
2018-03-27T12:00:22.737Z,14.12
2018-03-27T12:01:22.734Z,14.36
2018-03-27T12:02:22.732Z,14.39
2018-03-27T12:03:22.737Z,14.44
2018-03-27T12:04:22.734Z,14.39
2018-03-27T12:05:22.729Z,13.96
2018-03-27T12:06:22.729Z,13.93
2018-03-27T12:07:22.754Z,14.08
2018-03-27T12:08:22.728Z,13.98
2018-03-27T12:09:22.724Z,14.09
2018-03-27T12:10:22.724Z,14.02
2018-03-27T12:11:22.725Z,13.76
2018-03-27T12:12:22.720Z,13.16
2018-03-27T12:13:22.718Z,13.27
2018-03-27T12:14:22.721Z,12.99
2018-03-27T12:15:22.720Z,13.13
2018-03-27T12:16:22.718Z,13.13
2018-03-27T12:17:22.714Z,13.06
2018-03-27T12:18:22.714Z,12.87
2018-03-27T12:19:22.711Z,12.63
2018-03-27T12:20:22.710Z,12.70
2018-03-27T12:21:22.708Z,12.77
2018-03-27T12:22:22.706Z,12.95
2018-03-27T12:23:22.704Z,12.89
2018-03-27T12:24:22.702Z,12.89
2018-03-27T12:25:22.702Z,12.80
2018-03-27T12:26:22.699Z,12.71
2018-03-27T12:27:22.702Z,12.89
2018-03-27T12:28:22.699Z,12.87
2018-03-27T12:29:22.698Z,12.89
2018-03-27T12:30:22.696Z,12.74
2018-03-27T12:31:22.689Z,12.84
2018-03-27T12:32:22.688Z,12.70
2018-03-27T12:33:22.691Z,12.70
2018-03-27T12:34:22.683Z,12.89
2018-03-27T12:35:22.681Z,13.13
2018-03-27T12:36:22.679Z,13.09
2018-03-27T12:37:22.675Z,13.25
2018-03-27T12:38:22.675Z,13.36
2018-03-27T12:39:22.676Z,13.51
2018-03-27T12:40:22.669Z,13.73
2018-03-27T12:41:22.671Z,13.62
2018-03-27T12:42:22.680Z,13.53
2018-03-27T12:43:22.662Z,13.73
2018-03-27T12:44:22.661Z,13.94
2018-03-27T12:45:22.656Z,13.98
2018-03-27T12:46:22.668Z,13.99
2018-03-27T12:47:22.659Z,14.11
2018-03-27T12:48:22.661Z,14.19
2018-03-27T12:49:22.649Z,14.38
2018-03-27T12:50:22.647Z,14.30
2018-03-27T12:51:22.648Z,13.99
2018-03-27T12:52:22.641Z,14.11
2018-03-27T12:53:22.641Z,13.99
2018-03-27T12:54:22.643Z,13.87
2018-03-27T12:55:22.640Z,13.87
2018-03-27T12:56:22.634Z,13.88
2018-03-27T12:57:22.631Z,13.94
2018-03-27T12:58:22.633Z,14.08
2018-03-27T12:59:22.632Z,13.98
2018-03-27T13:00:22.639Z,13.80
2018-03-27T13:01:22.633Z,13.75
2018-03-27T13:02:22.629Z,13.59
2018-03-27T13:03:22.620Z,13.62
2018-03-27T13:04:22.615Z,13.48